METAR AND TAF INFORMATION
METAR FOR EHEH
ADDS - METARS form results

(1724 UTC 22 October 2017)
Data provider http://aviationweather.gov/adds/metars/
 
METAR text: EHEH 221715Z AUTO 24013KT 200V270 9999 -RADZ FEW033 BKN040 OVC046 10/08 Q1013 BLU 25012G22KT 9999 SCT025 BKN050 TEMPO SHRA RA FEW012 SCT015CB BKN030
Conditions at: EHEH (EINDHOVEN RNLAFB, NL) observed 1715 UTC 22 October 2017
Temperature: 10.0°C (50°F)
Dewpoint: 8.0°C (46°F) [RH = 87%]
Pressure (altimeter): 29.91 inches Hg (1013.0 mb)
Winds: from the WSW (240 degrees) at 15 MPH (13 knots; 6.8 m/s)
Visibility: 6 or more miles (10+ km)
Ceiling: 4000 feet AGL
Clouds: few clouds at 3300 feet AGL
broken clouds at 4000 feet AGL
overcast cloud deck at 4600 feet AGL
scattered clouds at 2500 feet AGL
Weather: -RA -DZ  (light rain, light drizzle)

METAR text: EHEH 221712Z AUTO 24013KT 200V270 9999 -RA FEW031 SCT036 BKN043 10/08 Q1013 BLU 25012G22KT 9999 SCT025 BKN050 TEMPO SHRA RA FEW012 SCT015CB BKN030
Conditions at: EHEH (EINDHOVEN RNLAFB, NL) observed 1712 UTC 22 October 2017
Temperature: 10.0°C (50°F)
Dewpoint: 8.0°C (46°F) [RH = 87%]
Pressure (altimeter): 29.91 inches Hg (1013.0 mb)
Winds: from the WSW (240 degrees) at 15 MPH (13 knots; 6.8 m/s)
Visibility: 6 or more miles (10+ km)
Ceiling: 4300 feet AGL
Clouds: few clouds at 3100 feet AGL
scattered clouds at 3600 feet AGL
broken clouds at 4300 feet AGL
scattered clouds at 2500 feet AGL
Weather: -RA  (light rain)

METAR text: EHEH 221655Z AUTO 24013KT 200V270 9999 FEW037 SCT046 BKN051 10/08 Q1013 BLU 25012G22KT 9999 SCT025 BKN050 TEMPO SHRA RA FEW012 SCT015CB BKN030
Conditions at: EHEH (EINDHOVEN RNLAFB, NL) observed 1655 UTC 22 October 2017
Temperature: 10.0°C (50°F)
Dewpoint: 8.0°C (46°F) [RH = 87%]
Pressure (altimeter): 29.91 inches Hg (1013.0 mb)
Winds: from the WSW (240 degrees) at 15 MPH (13 knots; 6.8 m/s)
Visibility: 6 or more miles (10+ km)
Ceiling: 5100 feet AGL
Clouds: few clouds at 3700 feet AGL
scattered clouds at 4600 feet AGL
broken clouds at 5100 feet AGL
scattered clouds at 2500 feet AGL
Weather: no significant weather observed at this time

METAR text: EHEH 221625Z AUTO 24011KT 200V270 9999 FEW032 BKN037 BKN043 10/08 Q1013 BLU 25012G22KT 9999 SCT025 BKN050 TEMPO SHRA RA FEW012 SCT015CB BKN030
Conditions at: EHEH (EINDHOVEN RNLAFB, NL) observed 1625 UTC 22 October 2017
Temperature: 10.0°C (50°F)
Dewpoint: 8.0°C (46°F) [RH = 87%]
Pressure (altimeter): 29.91 inches Hg (1013.0 mb)
Winds: from the WSW (240 degrees) at 13 MPH (11 knots; 5.7 m/s)
Visibility: 6 or more miles (10+ km)
Ceiling: 3700 feet AGL
Clouds: few clouds at 3200 feet AGL
broken clouds at 3700 feet AGL
broken clouds at 4300 feet AGL
scattered clouds at 2500 feet AGL
Weather: no significant weather observed at this time

Forecast for: EHEH (EINDHOVEN RNLAFB, NL)
Text: TAF EHEH 221055Z 2212/2318 24014KT 9999 SCT020 BKN040
Forecast period: 1200 UTC 22 October 2017 to 1600 UTC 23 October 2017
Forecast type: FROM: standard forecast or significant change
Winds: from the WSW (240 degrees) at 16 MPH (14 knots; 7.3 m/s)
Visibility: 6 or more miles (10+ km)
Ceiling: 4000 feet AGL
Clouds: scattered clouds at 2000 feet AGL
broken clouds at 4000 feet AGL
Weather: no significant weather forecast for this period
Text: TEMPO 2212/2221 FEW012 SCT018CB BKN030
Forecast period: 1200 to 2100 UTC 22 October 2017
Forecast type: TEMPORARY: The following changes expected for less than half the time period
Ceiling: 3000 feet AGL
Clouds: few clouds at 1200 feet AGL
scattered clouds at 1800 feet AGL
broken clouds at 3000 feet AGL
Weather: no significant weather forecast for this period
Text: PROB30
Forecast period: 1700 to 2100 UTC 22 October 2017
Forecast type: TEMPORARY: The following changes expected for less than half the time period
Visibility: 2.80 miles (4.51 km)
Clouds: few clouds at 800 feet AGL
scattered clouds at 1200 feet AGL
scattered clouds at 1800 feet AGL
Weather: SHRA RA  (rain showers, rain)
Text: TEMPO 2217/2221 4500 SHRA RA FEW008 SCT012 SCT018CB OVC030
Forecast period: 2100 UTC 22 October 2017 to 0500 UTC 23 October 2017
Forecast type: TEMPORARY: The following changes expected for less than half the time period
Ceiling: 3000 feet AGL
Clouds: scattered clouds at 1800 feet AGL
broken clouds at 3000 feet AGL
Weather: no significant weather forecast for this period
Text: PROB40
Forecast period: 1600 to 1800 UTC 23 October 2017
Forecast type: BECOMING: Conditions expected to become as follows by 1800 UTC 23 October 2017
Winds: from the S (180 degrees) at 7 MPH (6 knots; 3.1 m/s)
Visibility: 6 or more miles (10+ km)
Ceiling: 3000 feet AGL
Clouds: scattered clouds at 1800 feet AGL
broken clouds at 3000 feet AGL
Weather: no significant weather forecast for this period

 AIRPORT MAP

 RUNWAY INFORMATION
Runway 03 Runway length 9843 ft Runway width 148 ft
Runway elevation 73 ft Runway displaced threshold 821 ft Runway heading 35
Runway 21 Runway length 9843 ft Runway width 148 ft
Runway elevation 67 ft Runway displaced threshold 821 ft Runway heading 215

 AIRPORT FREQUENCIES
Type APP Name APP Frequency 123.175 MHZ
Type ATIS Name ATIS Frequency 126.025 MHZ
Type DIR Name DIRECTOR Frequency 124.525 MHZ
Type GND Name GND Frequency 121.925 MHZ
Type TWR Name TWR Frequency 131 MHZ

 AIRPORT NEAR NAVIGATION AIDS
Type NDB Name Eindhoven Frequency 397 KHZ
Type TACAN Name Eindhoven Frequency 117200 KHZ